CheckWX is a tool to help pilots better visualize weather data.  It is not intended as a substitute for an official pre-flight weather briefing.

03:10:32 UTC

KASG METAR
Springdale Municipal Airport
Springdale, Arkansas, USA
Current

1 hour ago

KASG 020148Z 13004KT 10SM CLR 17/06 A2994
Observed
Apr-2 @ 01:48 UTC
Wind
  • 130° at 4 KTS
Visibility
10 SM
Flight Rules
VFR
Cloud Levels
  • Clear skies
Temperature
17°C / 63°F
Dewpoint
C / 43°F
Humidity
49%
Altimeter
29.94" Hg
Pressure
1013.92 hPa
Previous

2 hours ago

KASG 020048Z 13006G11KT 10SM CLR 18/06 A2993
Observed
Apr-2 @ 00:48 UTC
Wind
  • 130° at 6 KTS
  • Gusting to 11 KTS
Visibility
10 SM
Flight Rules
VFR
Cloud Levels
  • Clear skies
Temperature
18°C / 64°F
Dewpoint
C / 43°F
Humidity
46%
Altimeter
29.93" Hg
Pressure
1013.52 hPa
Previous

3 hours ago

KASG 012348Z 13006KT 10SM CLR 18/06 A2994
Observed
Apr-1 @ 23:48 UTC
Wind
  • 130° at 6 KTS
Visibility
10 SM
Flight Rules
VFR
Cloud Levels
  • Clear skies
Temperature
18°C / 64°F
Dewpoint
C / 43°F
Humidity
46%
Altimeter
29.94" Hg
Pressure
1013.92 hPa